EDT,Max TemperatureF,Mean TemperatureF,Min TemperatureF,Max Dew PointF,MeanDew PointF,Min DewpointF,Max Humidity, Mean Humidity, Min Humidity, Max Sea Level PressureIn, Mean Sea Level PressureIn, Min Sea Level PressureIn, Max VisibilityMiles, Mean VisibilityMiles, Min VisibilityMiles, Max Wind SpeedMPH, Mean Wind SpeedMPH, Max Gust SpeedMPH,PrecipitationIn, CloudCover, Events, WindDirDegrees
2013-7-1,83,75,67,69,66,63,100,81,62,29.96,29.90,29.82,10,8,1,3,2,6,0.40,7,Rain,176
2013-7-2,83,75,67,68,66,63,93,72,51,30.09,30.03,29.96,10,9,2,10,3,16,0.15,2,Rain,173
2013-7-3,86,78,70,68,65,64,84,70,55,30.19,30.15,30.09,10,10,10,14,4,16,0.00,2,,179
2013-7-4,89,80,70,70,67,64,100,74,48,30.24,30.18,30.12,10,10,4,12,3,21,0.05,3,Rain-Thunderstorm,199
2013-7-5,86,78,70,69,67,64,87,69,51,30.19,30.16,30.13,10,10,10,13,3,18,0.02,1,,188
2013-7-6,91,80,69,70,68,65,97,71,44,30.21,30.14,30.04,10,10,10,10,3,14,0.00,1,,200
2013-7-7,81,75,68,70,67,65,90,76,62,30.17,30.12,30.05,10,9,1,10,4,16,0.22,6,Rain-Thunderstorm,225
2013-7-8,83,75,66,68,65,61,93,74,55,30.19,30.14,30.09,10,10,10,10,5,15,0.00,4,,209
2013-7-9,83,76,69,72,69,67,100,85,69,30.15,30.09,30.01,10,7,2,15,5,28,0.76,6,Rain,205
2013-7-10,87,77,67,72,68,63,100,81,61,30.12,29.99,29.87,10,7,1,16,5,29,1.15,5,Rain,212
2013-7-11,76,71,66,66,64,61,93,79,64,30.03,29.99,29.91,10,10,8,12,2,16,0.00,7,,6
2013-7-12,74,67,60,65,63,58,97,85,73,30.13,30.08,29.99,10,6,0,8,3,13,1.30,7,Rain-Thunderstorm,2
2013-7-13,84,73,61,68,64,61,100,79,58,30.25,30.16,30.11,10,5,0,10,3,17,0.00,6,Fog,34
2013-7-14,90,81,71,71,66,63,79,60,41,30.31,30.27,30.23,10,10,10,13,5,15,0.00,2,,137
2013-7-15,89,78,67,70,67,64,93,69,44,30.37,30.32,30.26,10,10,10,7,2,10,0.00,1,,228
2013-7-16,91,80,69,72,70,67,97,73,49,30.34,30.31,30.26,10,7,1,21,1,29,0.38,2,Rain-Thunderstorm,270
2013-7-17,91,81,70,74,70,69,100,76,52,30.36,30.29,30.19,10,5,0,14,2,20,0.00,4,Fog,249
2013-7-18,92,81,70,74,71,69,93,71,49,30.22,30.15,30.06,10,7,2,8,2,13,0.00,2,,241
2013-7-19,89,81,72,74,71,67,94,79,63,30.07,30.01,29.91,10,8,4,13,4,24,0.07,1,Rain,200
2013-7-20,81,75,68,73,69,66,100,87,74,30.01,29.95,29.88,10,5,0,14,4,23,0.98,5,Fog-Rain,203
2013-7-21,81,74,66,70,67,66,100,81,62,30.02,29.97,29.93,10,6,0,6,1,9,0.01,4,Fog-Rain,183
2013-7-22,80,74,68,72,69,66,97,86,74,29.97,29.91,29.81,10,6,0,6,1,8,0.02,4,Fog-Rain-Thunderstorm,190
2013-7-23,84,75,65,68,66,63,97,74,51,29.84,29.80,29.73,10,9,2,18,4,32,0.11,6,Rain,221
2013-7-24,73,67,60,65,59,53,93,73,53,30.01,29.89,29.77,10,10,6,14,4,17,0.00,6,,352
2013-7-25,76,65,54,58,54,53,100,73,46,30.11,30.04,30.00,10,8,0,12,3,16,0.00,2,Fog,4
2013-7-26,80,67,53,58,55,52,93,66,39,30.13,30.08,30.03,10,10,9,9,1,12,0.00,0,,85
2013-7-27,74,67,60,68,63,57,90,85,79,30.02,29.95,29.89,10,9,1,12,2,18,0.68,5,Rain,199
2013-7-28,78,68,57,65,59,53,93,70,46,30.07,29.96,29.88,10,9,2,13,4,20,0.44,5,Rain,224
2013-7-29,75,64,52,58,54,51,93,70,46,30.22,30.15,30.08,10,10,10,10,3,17,0.00,4,,231
2013-7-30,79,68,57,60,58,55,90,69,47,30.26,30.22,30.17,10,10,5,8,1,10,0.00,3,,322
2013-7-31,74,67,60,66,62,58,97,81,64,30.18,30.09,29.99,10,9,4,7,2,10,0.03,6,Rain,183